sensor_id;sensor_type;location;lat;lon;timestamp;temperature;humidity
44182;DHT22;30436;48.888;9.202;2022-09-09T00:02:21;19.00;99.90
44182;DHT22;30436;48.888;9.202;2022-09-09T00:05:12;19.00;99.90
44182;DHT22;30436;48.888;9.202;2022-09-09T00:07:47;18.80;99.90
44182;DHT22;30436;48.888;9.202;2022-09-09T00:10:22;18.90;99.90
44182;DHT22;30436;48.888;9.202;2022-09-09T00:13:06;19.00;99.90
44182;DHT22;30436;48.888;9.202;2022-09-09T00:16:00;18.90;99.90
44182;DHT22;30436;48.888;9.202;2022-09-09T00:21:17;18.80;99.90
44182;DHT22;30436;48.888;9.202;2022-09-09T00:23:55;18.80;99.90
44182;DHT22;30436;48.888;9.202;2022-09-09T00:27:11;18.90;99.90
44182;DHT22;30436;48.888;9.202;2022-09-09T00:32:16;18.90;99.90
44182;DHT22;30436;48.888;9.202;2022-09-09T00:35:01;18.90;99.90
44182;DHT22;30436;48.888;9.202;2022-09-09T00:37:29;18.80;99.90
44182;DHT22;30436;48.888;9.202;2022-09-09T00:40:00;18.80;99.90
44182;DHT22;30436;48.888;9.202;2022-09-09T00:42:42;18.70;99.90
44182;DHT22;30436;48.888;9.202;2022-09-09T00:47:52;19.00;99.90
44182;DHT22;30436;48.888;9.202;2022-09-09T00:50:53;19.10;99.90
44182;DHT22;30436;48.888;9.202;2022-09-09T00:56:18;19.00;99.90
44182;DHT22;30436;48.888;9.202;2022-09-09T00:59:05;19.10;99.90
44182;DHT22;30436;48.888;9.202;2022-09-09T01:01:36;19.00;99.90
44182;DHT22;30436;48.888;9.202;2022-09-09T01:04:07;18.90;99.90
44182;DHT22;30436;48.888;9.202;2022-09-09T01:06:36;19.20;99.90
44182;DHT22;30436;48.888;9.202;2022-09-09T01:12:14;19.20;99.90
44182;DHT22;30436;48.888;9.202;2022-09-09T01:14:48;19.10;99.90
44182;DHT22;30436;48.888;9.202;2022-09-09T01:17:30;19.00;99.90
44182;DHT22;30436;48.888;9.202;2022-09-09T01:20:19;18.80;99.90
44182;DHT22;30436;48.888;9.202;2022-09-09T01:26:32;18.70;99.90
44182;DHT22;30436;48.888;9.202;2022-09-09T01:29:08;18.80;99.90
44182;DHT22;30436;48.888;9.202;2022-09-09T01:31:39;18.80;99.90
44182;DHT22;30436;48.888;9.202;2022-09-09T01:34:15;18.80;99.90
44182;DHT22;30436;48.888;9.202;2022-09-09T01:39:35;18.90;99.90
44182;DHT22;30436;48.888;9.202;2022-09-09T01:42:08;18.60;99.90
44182;DHT22;30436;48.888;9.202;2022-09-09T01:44:36;18.60;99.90
44182;DHT22;30436;48.888;9.202;2022-09-09T01:47:04;18.70;99.90
44182;DHT22;30436;48.888;9.202;2022-09-09T01:49:31;18.90;99.90
44182;DHT22;30436;48.888;9.202;2022-09-09T01:52:02;18.70;99.90
44182;DHT22;30436;48.888;9.202;2022-09-09T01:54:35;18.70;99.90
44182;DHT22;30436;48.888;9.202;2022-09-09T01:57:18;19.00;99.90
44182;DHT22;30436;48.888;9.202;2022-09-09T02:06:04;18.80;99.90
44182;DHT22;30436;48.888;9.202;2022-09-09T02:08:46;18.80;99.90
44182;DHT22;30436;48.888;9.202;2022-09-09T02:11:15;18.80;99.90
44182;DHT22;30436;48.888;9.202;2022-09-09T02:13:48;18.80;99.90
44182;DHT22;30436;48.888;9.202;2022-09-09T02:16:24;18.90;99.90
44182;DHT22;30436;48.888;9.202;2022-09-09T02:18:56;18.60;99.90
44182;DHT22;30436;48.888;9.202;2022-09-09T02:21:33;18.60;99.90
44182;DHT22;30436;48.888;9.202;2022-09-09T02:24:04;18.50;99.90
44182;DHT22;30436;48.888;9.202;2022-09-09T02:26:33;18.60;99.90
44182;DHT22;30436;48.888;9.202;2022-09-09T02:29:12;18.50;99.90
44182;DHT22;30436;48.888;9.202;2022-09-09T02:31:42;18.60;99.90
44182;DHT22;30436;48.888;9.202;2022-09-09T02:34:14;18.70;99.90
44182;DHT22;30436;48.888;9.202;2022-09-09T02:36:42;18.80;99.90
44182;DHT22;30436;48.888;9.202;2022-09-09T02:39:09;18.60;99.90
44182;DHT22;30436;48.888;9.202;2022-09-09T02:41:38;18.60;99.90
44182;DHT22;30436;48.888;9.202;2022-09-09T02:44:16;18.50;99.90
44182;DHT22;30436;48.888;9.202;2022-09-09T02:47:24;18.20;99.90
44182;DHT22;30436;48.888;9.202;2022-09-09T02:52:44;18.50;99.90
44182;DHT22;30436;48.888;9.202;2022-09-09T02:57:52;18.50;99.90
44182;DHT22;30436;48.888;9.202;2022-09-09T03:00:26;18.50;99.90
44182;DHT22;30436;48.888;9.202;2022-09-09T03:02:56;18.40;99.90
44182;DHT22;30436;48.888;9.202;2022-09-09T03:05:22;18.40;99.90
44182;DHT22;30436;48.888;9.202;2022-09-09T03:07:48;18.40;99.90
44182;DHT22;30436;48.888;9.202;2022-09-09T03:10:17;18.30;99.90
44182;DHT22;30436;48.888;9.202;2022-09-09T03:12:43;18.40;99.90
44182;DHT22;30436;48.888;9.202;2022-09-09T03:15:09;18.40;99.90
44182;DHT22;30436;48.888;9.202;2022-09-09T03:17:36;18.50;99.90
44182;DHT22;30436;48.888;9.202;2022-09-09T03:20:05;18.20;99.90
44182;DHT22;30436;48.888;9.202;2022-09-09T03:22:31;18.30;99.90
44182;DHT22;30436;48.888;9.202;2022-09-09T03:24:59;18.30;99.90
44182;DHT22;30436;48.888;9.202;2022-09-09T03:27:25;18.10;99.90
44182;DHT22;30436;48.888;9.202;2022-09-09T03:29:52;18.00;99.90
44182;DHT22;30436;48.888;9.202;2022-09-09T03:32:21;18.10;99.90
44182;DHT22;30436;48.888;9.202;2022-09-09T03:34:48;18.20;99.90
44182;DHT22;30436;48.888;9.202;2022-09-09T03:37:18;18.30;99.90
44182;DHT22;30436;48.888;9.202;2022-09-09T03:39:45;18.20;99.90
44182;DHT22;30436;48.888;9.202;2022-09-09T03:42:15;18.10;99.90
44182;DHT22;30436;48.888;9.202;2022-09-09T03:44:48;18.10;99.90
44182;DHT22;30436;48.888;9.202;2022-09-09T03:47:18;18.20;99.90
44182;DHT22;30436;48.888;9.202;2022-09-09T03:49:45;18.30;99.90
44182;DHT22;30436;48.888;9.202;2022-09-09T03:52:11;18.00;99.90
44182;DHT22;30436;48.888;9.202;2022-09-09T03:54:37;18.10;99.90
44182;DHT22;30436;48.888;9.202;2022-09-09T03:57:04;18.30;99.90
44182;DHT22;30436;48.888;9.202;2022-09-09T03:59:30;18.40;99.90
44182;DHT22;30436;48.888;9.202;2022-09-09T04:01:56;18.30;99.90
44182;DHT22;30436;48.888;9.202;2022-09-09T04:04:22;18.20;99.90
44182;DHT22;30436;48.888;9.202;2022-09-09T04:06:48;18.30;99.90
44182;DHT22;30436;48.888;9.202;2022-09-09T04:09:14;18.40;99.90
44182;DHT22;30436;48.888;9.202;2022-09-09T04:11:41;18.30;99.90
44182;DHT22;30436;48.888;9.202;2022-09-09T04:14:07;18.30;99.90
44182;DHT22;30436;48.888;9.202;2022-09-09T04:16:34;18.10;99.90
44182;DHT22;30436;48.888;9.202;2022-09-09T04:19:03;18.10;99.90
44182;DHT22;30436;48.888;9.202;2022-09-09T04:21:30;18.20;99.90
44182;DHT22;30436;48.888;9.202;2022-09-09T04:23:58;18.30;99.90
44182;DHT22;30436;48.888;9.202;2022-09-09T04:26:25;18.20;99.90
44182;DHT22;30436;48.888;9.202;2022-09-09T04:28:51;18.30;99.90
44182;DHT22;30436;48.888;9.202;2022-09-09T04:31:22;18.20;99.90
44182;DHT22;30436;48.888;9.202;2022-09-09T04:33:51;18.20;99.90
44182;DHT22;30436;48.888;9.202;2022-09-09T04:36:17;18.20;99.90
44182;DHT22;30436;48.888;9.202;2022-09-09T04:38:45;18.00;99.90
44182;DHT22;30436;48.888;9.202;2022-09-09T04:41:11;18.10;99.90
44182;DHT22;30436;48.888;9.202;2022-09-09T04:43:39;18.30;99.90
44182;DHT22;30436;48.888;9.202;2022-09-09T04:46:07;18.20;99.90
44182;DHT22;30436;48.888;9.202;2022-09-09T04:48:34;18.30;99.90
44182;DHT22;30436;48.888;9.202;2022-09-09T04:51:03;18.30;99.90
44182;DHT22;30436;48.888;9.202;2022-09-09T04:53:31;18.20;99.90
44182;DHT22;30436;48.888;9.202;2022-09-09T04:56:10;18.30;99.90
44182;DHT22;30436;48.888;9.202;2022-09-09T04:58:40;18.30;99.90
44182;DHT22;30436;48.888;9.202;2022-09-09T05:01:11;18.30;99.90
44182;DHT22;30436;48.888;9.202;2022-09-09T05:03:39;18.40;99.90
44182;DHT22;30436;48.888;9.202;2022-09-09T05:06:09;18.40;99.90
44182;DHT22;30436;48.888;9.202;2022-09-09T05:08:37;18.20;99.90
44182;DHT22;30436;48.888;9.202;2022-09-09T05:11:12;18.30;99.90
44182;DHT22;30436;48.888;9.202;2022-09-09T05:13:39;18.40;99.90
44182;DHT22;30436;48.888;9.202;2022-09-09T05:16:06;18.30;99.90
44182;DHT22;30436;48.888;9.202;2022-09-09T05:18:32;18.30;99.90
44182;DHT22;30436;48.888;9.202;2022-09-09T05:20:59;18.30;99.90
44182;DHT22;30436;48.888;9.202;2022-09-09T05:23:26;18.50;99.90
44182;DHT22;30436;48.888;9.202;2022-09-09T05:25:56;18.50;99.90
44182;DHT22;30436;48.888;9.202;2022-09-09T05:28:24;18.40;99.90
44182;DHT22;30436;48.888;9.202;2022-09-09T05:31:02;18.50;99.90
44182;DHT22;30436;48.888;9.202;2022-09-09T05:33:35;18.60;99.90
44182;DHT22;30436;48.888;9.202;2022-09-09T05:36:04;18.50;99.90
44182;DHT22;30436;48.888;9.202;2022-09-09T05:38:30;18.40;99.90
44182;DHT22;30436;48.888;9.202;2022-09-09T05:40:57;18.30;99.90
44182;DHT22;30436;48.888;9.202;2022-09-09T05:43:24;18.40;99.90
44182;DHT22;30436;48.888;9.202;2022-09-09T05:48:44;18.50;99.90
44182;DHT22;30436;48.888;9.202;2022-09-09T05:51:14;18.40;99.90
44182;DHT22;30436;48.888;9.202;2022-09-09T05:53:44;18.50;99.90
44182;DHT22;30436;48.888;9.202;2022-09-09T05:56:30;18.50;99.90
44182;DHT22;30436;48.888;9.202;2022-09-09T05:58:58;18.40;99.90
44182;DHT22;30436;48.888;9.202;2022-09-09T06:01:31;18.40;99.90
44182;DHT22;30436;48.888;9.202;2022-09-09T06:03:58;18.60;99.90
44182;DHT22;30436;48.888;9.202;2022-09-09T06:06:27;18.70;99.90
44182;DHT22;30436;48.888;9.202;2022-09-09T06:08:56;18.70;99.90
44182;DHT22;30436;48.888;9.202;2022-09-09T06:11:34;18.70;99.90
44182;DHT22;30436;48.888;9.202;2022-09-09T06:14:03;18.80;99.90
44182;DHT22;30436;48.888;9.202;2022-09-09T06:16:31;18.80;99.90
44182;DHT22;30436;48.888;9.202;2022-09-09T06:19:00;18.90;99.90
44182;DHT22;30436;48.888;9.202;2022-09-09T06:21:30;18.90;99.90
44182;DHT22;30436;48.888;9.202;2022-09-09T06:23:58;19.00;99.90
44182;DHT22;30436;48.888;9.202;2022-09-09T06:26:32;19.00;99.90
44182;DHT22;30436;48.888;9.202;2022-09-09T06:29:00;19.00;99.90
44182;DHT22;30436;48.888;9.202;2022-09-09T06:31:29;19.00;99.90
44182;DHT22;30436;48.888;9.202;2022-09-09T06:34:08;18.90;99.90
44182;DHT22;30436;48.888;9.202;2022-09-09T06:36:38;18.90;99.90
44182;DHT22;30436;48.888;9.202;2022-09-09T06:39:05;19.00;99.90
44182;DHT22;30436;48.888;9.202;2022-09-09T06:41:32;19.00;99.90
44182;DHT22;30436;48.888;9.202;2022-09-09T06:43:59;18.90;99.90
44182;DHT22;30436;48.888;9.202;2022-09-09T06:46:40;19.10;99.90
44182;DHT22;30436;48.888;9.202;2022-09-09T06:49:08;19.20;99.90
44182;DHT22;30436;48.888;9.202;2022-09-09T06:51:35;19.30;99.90
44182;DHT22;30436;48.888;9.202;2022-09-09T06:54:03;19.40;99.90
44182;DHT22;30436;48.888;9.202;2022-09-09T06:56:35;19.20;99.90
44182;DHT22;30436;48.888;9.202;2022-09-09T06:59:06;19.20;99.90
44182;DHT22;30436;48.888;9.202;2022-09-09T07:01:36;19.30;99.90
44182;DHT22;30436;48.888;9.202;2022-09-09T07:04:05;19.40;99.90
44182;DHT22;30436;48.888;9.202;2022-09-09T07:06:39;19.60;99.90
44182;DHT22;30436;48.888;9.202;2022-09-09T07:09:09;19.40;99.90
44182;DHT22;30436;48.888;9.202;2022-09-09T07:11:40;19.50;99.90
44182;DHT22;30436;48.888;9.202;2022-09-09T07:14:08;19.60;99.90
44182;DHT22;30436;48.888;9.202;2022-09-09T07:16:34;19.60;99.90
44182;DHT22;30436;48.888;9.202;2022-09-09T07:19:03;19.50;99.90
44182;DHT22;30436;48.888;9.202;2022-09-09T07:21:30;19.50;99.90
44182;DHT22;30436;48.888;9.202;2022-09-09T07:23:56;19.60;99.90
44182;DHT22;30436;48.888;9.202;2022-09-09T07:26:25;19.80;99.90
44182;DHT22;30436;48.888;9.202;2022-09-09T07:28:52;20.00;99.90
44182;DHT22;30436;48.888;9.202;2022-09-09T07:31:22;20.10;99.90
44182;DHT22;30436;48.888;9.202;2022-09-09T07:33:49;20.20;99.90
44182;DHT22;30436;48.888;9.202;2022-09-09T07:36:21;20.20;99.90
44182;DHT22;30436;48.888;9.202;2022-09-09T07:38:53;20.20;99.90
44182;DHT22;30436;48.888;9.202;2022-09-09T07:41:22;20.30;99.90
44182;DHT22;30436;48.888;9.202;2022-09-09T07:43:50;20.40;99.90
44182;DHT22;30436;48.888;9.202;2022-09-09T07:46:18;20.40;99.90
44182;DHT22;30436;48.888;9.202;2022-09-09T07:48:45;20.30;99.90
44182;DHT22;30436;48.888;9.202;2022-09-09T07:51:14;20.40;99.90
44182;DHT22;30436;48.888;9.202;2022-09-09T07:53:47;20.30;99.90
44182;DHT22;30436;48.888;9.202;2022-09-09T07:56:16;20.30;99.90
44182;DHT22;30436;48.888;9.202;2022-09-09T07:58:45;20.40;99.90
44182;DHT22;30436;48.888;9.202;2022-09-09T08:01:32;20.30;99.90
44182;DHT22;30436;48.888;9.202;2022-09-09T08:04:01;20.20;99.90
44182;DHT22;30436;48.888;9.202;2022-09-09T08:06:32;20.50;99.90
44182;DHT22;30436;48.888;9.202;2022-09-09T08:08:59;20.90;99.90
44182;DHT22;30436;48.888;9.202;2022-09-09T08:11:26;21.10;99.90
44182;DHT22;30436;48.888;9.202;2022-09-09T08:13:52;21.30;99.90
44182;DHT22;30436;48.888;9.202;2022-09-09T08:16:22;21.40;99.90
44182;DHT22;30436;48.888;9.202;2022-09-09T08:18:51;21.40;99.40
44182;DHT22;30436;48.888;9.202;2022-09-09T08:21:20;21.50;99.90
44182;DHT22;30436;48.888;9.202;2022-09-09T08:23:47;21.50;99.90
44182;DHT22;30436;48.888;9.202;2022-09-09T08:26:35;21.60;99.20
44182;DHT22;30436;48.888;9.202;2022-09-09T08:29:03;21.90;99.90
44182;DHT22;30436;48.888;9.202;2022-09-09T08:31:31;22.10;99.90
44182;DHT22;30436;48.888;9.202;2022-09-09T08:34:00;22.20;98.80
44182;DHT22;30436;48.888;9.202;2022-09-09T08:36:31;22.10;97.50
44182;DHT22;30436;48.888;9.202;2022-09-09T08:38:59;21.80;97.60
44182;DHT22;30436;48.888;9.202;2022-09-09T08:44:49;21.50;98.00
44182;DHT22;30436;48.888;9.202;2022-09-09T08:47:40;21.50;98.50
44182;DHT22;30436;48.888;9.202;2022-09-09T08:53:11;22.10;99.70
44182;DHT22;30436;48.888;9.202;2022-09-09T08:55:48;22.20;97.20
44182;DHT22;30436;48.888;9.202;2022-09-09T08:58:26;22.20;95.90
44182;DHT22;30436;48.888;9.202;2022-09-09T09:03:58;22.70;96.80
44182;DHT22;30436;48.888;9.202;2022-09-09T09:09:15;23.10;97.60
44182;DHT22;30436;48.888;9.202;2022-09-09T09:11:48;23.30;96.00
44182;DHT22;30436;48.888;9.202;2022-09-09T09:14:21;23.40;95.00
44182;DHT22;30436;48.888;9.202;2022-09-09T09:19:23;23.40;93.40
44182;DHT22;30436;48.888;9.202;2022-09-09T09:27:35;23.10;92.50
44182;DHT22;30436;48.888;9.202;2022-09-09T09:30:15;23.00;91.50
44182;DHT22;30436;48.888;9.202;2022-09-09T09:32:58;22.80;90.40
44182;DHT22;30436;48.888;9.202;2022-09-09T09:35:25;22.70;89.80
44182;DHT22;30436;48.888;9.202;2022-09-09T09:37:51;22.60;88.80
44182;DHT22;30436;48.888;9.202;2022-09-09T09:40:20;22.50;88.50
44182;DHT22;30436;48.888;9.202;2022-09-09T09:43:01;22.50;90.50
44182;DHT22;30436;48.888;9.202;2022-09-09T09:45:35;22.50;90.30
44182;DHT22;30436;48.888;9.202;2022-09-09T09:48:12;22.40;90.10
44182;DHT22;30436;48.888;9.202;2022-09-09T09:50:51;22.60;91.70
44182;DHT22;30436;48.888;9.202;2022-09-09T09:53:38;23.10;89.80
44182;DHT22;30436;48.888;9.202;2022-09-09T09:56:09;23.50;91.50
44182;DHT22;30436;48.888;9.202;2022-09-09T10:03:54;24.30;91.00
44182;DHT22;30436;48.888;9.202;2022-09-09T10:06:35;24.50;89.40
44182;DHT22;30436;48.888;9.202;2022-09-09T10:09:03;24.70;87.10
44182;DHT22;30436;48.888;9.202;2022-09-09T10:11:39;24.80;86.80
44182;DHT22;30436;48.888;9.202;2022-09-09T10:19:35;25.20;77.20
44182;DHT22;30436;48.888;9.202;2022-09-09T10:22:28;25.30;80.00
44182;DHT22;30436;48.888;9.202;2022-09-09T10:25:18;25.70;79.60
44182;DHT22;30436;48.888;9.202;2022-09-09T10:31:07;26.00;77.70
44182;DHT22;30436;48.888;9.202;2022-09-09T10:33:44;26.10;74.10
44182;DHT22;30436;48.888;9.202;2022-09-09T10:39:04;26.90;72.40
44182;DHT22;30436;48.888;9.202;2022-09-09T10:42:08;26.80;73.80
44182;DHT22;30436;48.888;9.202;2022-09-09T10:45:02;27.00;73.60
44182;DHT22;30436;48.888;9.202;2022-09-09T10:50:49;26.40;67.80
44182;DHT22;30436;48.888;9.202;2022-09-09T10:53:35;26.20;72.10
44182;DHT22;30436;48.888;9.202;2022-09-09T10:56:10;26.10;72.70
44182;DHT22;30436;48.888;9.202;2022-09-09T10:59:02;25.90;72.60
44182;DHT22;30436;48.888;9.202;2022-09-09T11:03:17;25.60;74.90
44182;DHT22;30436;48.888;9.202;2022-09-09T11:05:47;25.40;74.20
44182;DHT22;30436;48.888;9.202;2022-09-09T11:08:26;25.10;75.70
44182;DHT22;30436;48.888;9.202;2022-09-09T11:13:42;24.80;86.00
44182;DHT22;30436;48.888;9.202;2022-09-09T11:18:49;24.00;90.60
44182;DHT22;30436;48.888;9.202;2022-09-09T11:21:43;23.60;91.40
44182;DHT22;30436;48.888;9.202;2022-09-09T11:27:09;22.90;94.90
44182;DHT22;30436;48.888;9.202;2022-09-09T11:30:14;22.10;99.90
44182;DHT22;30436;48.888;9.202;2022-09-09T11:38:48;20.70;99.90
44182;DHT22;30436;48.888;9.202;2022-09-09T11:41:18;20.50;99.90
44182;DHT22;30436;48.888;9.202;2022-09-09T11:43:48;20.50;99.90
44182;DHT22;30436;48.888;9.202;2022-09-09T11:46:22;20.40;99.90
44182;DHT22;30436;48.888;9.202;2022-09-09T11:49:00;20.40;99.90
44182;DHT22;30436;48.888;9.202;2022-09-09T11:51:28;20.20;99.90
44182;DHT22;30436;48.888;9.202;2022-09-09T11:59:18;20.70;99.90
44182;DHT22;30436;48.888;9.202;2022-09-09T12:01:48;20.90;99.90
44182;DHT22;30436;48.888;9.202;2022-09-09T12:12:31;21.80;99.90
44182;DHT22;30436;48.888;9.202;2022-09-09T12:20:15;22.30;99.90
44182;DHT22;30436;48.888;9.202;2022-09-09T12:28:25;23.90;99.90
44182;DHT22;30436;48.888;9.202;2022-09-09T12:31:05;24.20;95.00
44182;DHT22;30436;48.888;9.202;2022-09-09T12:33:37;24.40;95.40
44182;DHT22;30436;48.888;9.202;2022-09-09T12:36:12;24.00;96.20
44182;DHT22;30436;48.888;9.202;2022-09-09T12:38:41;24.00;96.70
44182;DHT22;30436;48.888;9.202;2022-09-09T12:41:22;24.40;97.70
44182;DHT22;30436;48.888;9.202;2022-09-09T12:43:49;24.70;96.80
44182;DHT22;30436;48.888;9.202;2022-09-09T12:46:39;24.70;92.90
44182;DHT22;30436;48.888;9.202;2022-09-09T12:49:35;24.80;93.30
44182;DHT22;30436;48.888;9.202;2022-09-09T12:52:26;24.90;90.20
44182;DHT22;30436;48.888;9.202;2022-09-09T12:54:52;24.70;88.70
44182;DHT22;30436;48.888;9.202;2022-09-09T12:57:20;24.40;85.60
44182;DHT22;30436;48.888;9.202;2022-09-09T12:59:47;24.50;87.50
44182;DHT22;30436;48.888;9.202;2022-09-09T13:02:24;24.90;88.80
44182;DHT22;30436;48.888;9.202;2022-09-09T13:04:51;25.00;89.00
44182;DHT22;30436;48.888;9.202;2022-09-09T13:07:18;25.40;87.10
44182;DHT22;30436;48.888;9.202;2022-09-09T13:09:45;25.70;82.40
44182;DHT22;30436;48.888;9.202;2022-09-09T13:12:15;25.60;81.80
44182;DHT22;30436;48.888;9.202;2022-09-09T13:14:45;25.70;79.50
44182;DHT22;30436;48.888;9.202;2022-09-09T13:17:19;25.70;76.60
44182;DHT22;30436;48.888;9.202;2022-09-09T13:19:45;25.20;80.40
44182;DHT22;30436;48.888;9.202;2022-09-09T13:22:36;25.00;83.50
44182;DHT22;30436;48.888;9.202;2022-09-09T13:25:26;25.40;77.90
44182;DHT22;30436;48.888;9.202;2022-09-09T13:27:58;25.40;82.80
44182;DHT22;30436;48.888;9.202;2022-09-09T13:30:33;25.30;84.10
44182;DHT22;30436;48.888;9.202;2022-09-09T13:35:27;25.50;79.20
44182;DHT22;30436;48.888;9.202;2022-09-09T13:37:53;25.60;76.30
44182;DHT22;30436;48.888;9.202;2022-09-09T13:40:23;25.60;77.30
44182;DHT22;30436;48.888;9.202;2022-09-09T13:42:55;25.80;79.50
44182;DHT22;30436;48.888;9.202;2022-09-09T13:45:23;26.00;75.80
44182;DHT22;30436;48.888;9.202;2022-09-09T13:47:52;26.00;75.30
44182;DHT22;30436;48.888;9.202;2022-09-09T13:50:27;26.00;77.90
44182;DHT22;30436;48.888;9.202;2022-09-09T13:52:55;26.20;76.40
44182;DHT22;30436;48.888;9.202;2022-09-09T13:55:25;26.50;72.90
44182;DHT22;30436;48.888;9.202;2022-09-09T13:57:53;26.20;71.20
44182;DHT22;30436;48.888;9.202;2022-09-09T14:00:19;25.80;73.80
44182;DHT22;30436;48.888;9.202;2022-09-09T14:02:46;25.60;72.20
44182;DHT22;30436;48.888;9.202;2022-09-09T14:05:12;25.50;71.10
44182;DHT22;30436;48.888;9.202;2022-09-09T14:07:39;25.20;71.70
44182;DHT22;30436;48.888;9.202;2022-09-09T14:10:06;25.30;71.50
44182;DHT22;30436;48.888;9.202;2022-09-09T14:12:32;25.10;71.10
44182;DHT22;30436;48.888;9.202;2022-09-09T14:14:58;25.10;72.70
44182;DHT22;30436;48.888;9.202;2022-09-09T14:17:25;25.30;74.00
44182;DHT22;30436;48.888;9.202;2022-09-09T14:19:55;25.00;70.30
44182;DHT22;30436;48.888;9.202;2022-09-09T14:22:21;24.80;71.80
44182;DHT22;30436;48.888;9.202;2022-09-09T14:24:47;24.70;70.80
44182;DHT22;30436;48.888;9.202;2022-09-09T14:27:13;24.80;71.40
44182;DHT22;30436;48.888;9.202;2022-09-09T14:29:39;24.90;69.40
44182;DHT22;30436;48.888;9.202;2022-09-09T14:32:05;25.00;70.70
44182;DHT22;30436;48.888;9.202;2022-09-09T14:34:30;24.80;70.20
44182;DHT22;30436;48.888;9.202;2022-09-09T14:36:58;25.00;72.60
44182;DHT22;30436;48.888;9.202;2022-09-09T14:39:23;25.00;70.00
44182;DHT22;30436;48.888;9.202;2022-09-09T14:41:49;24.50;68.80
44182;DHT22;30436;48.888;9.202;2022-09-09T14:44:15;24.20;69.10
44182;DHT22;30436;48.888;9.202;2022-09-09T14:46:41;24.20;72.70
44182;DHT22;30436;48.888;9.202;2022-09-09T14:49:08;24.30;72.30
44182;DHT22;30436;48.888;9.202;2022-09-09T14:51:35;24.30;73.70
44182;DHT22;30436;48.888;9.202;2022-09-09T14:54:01;24.30;72.70
44182;DHT22;30436;48.888;9.202;2022-09-09T14:56:29;24.30;70.10
44182;DHT22;30436;48.888;9.202;2022-09-09T14:58:57;24.10;70.70
44182;DHT22;30436;48.888;9.202;2022-09-09T15:01:24;24.00;69.20
44182;DHT22;30436;48.888;9.202;2022-09-09T15:03:54;23.90;72.10
44182;DHT22;30436;48.888;9.202;2022-09-09T15:06:21;23.90;71.20
44182;DHT22;30436;48.888;9.202;2022-09-09T15:08:47;23.90;72.50
44182;DHT22;30436;48.888;9.202;2022-09-09T15:11:15;23.90;73.20
44182;DHT22;30436;48.888;9.202;2022-09-09T15:13:42;23.90;72.10
44182;DHT22;30436;48.888;9.202;2022-09-09T15:16:13;23.70;72.90
44182;DHT22;30436;48.888;9.202;2022-09-09T15:18:40;23.70;71.20
44182;DHT22;30436;48.888;9.202;2022-09-09T15:21:18;23.60;71.40
44182;DHT22;30436;48.888;9.202;2022-09-09T15:23:45;23.60;73.60
44182;DHT22;30436;48.888;9.202;2022-09-09T15:26:11;23.80;75.00
44182;DHT22;30436;48.888;9.202;2022-09-09T15:28:40;23.70;74.90
44182;DHT22;30436;48.888;9.202;2022-09-09T15:31:15;23.60;75.70
44182;DHT22;30436;48.888;9.202;2022-09-09T15:33:48;23.60;73.00
44182;DHT22;30436;48.888;9.202;2022-09-09T15:36:18;23.60;72.60
44182;DHT22;30436;48.888;9.202;2022-09-09T15:38:44;23.40;74.00
44182;DHT22;30436;48.888;9.202;2022-09-09T15:41:11;23.40;71.20
44182;DHT22;30436;48.888;9.202;2022-09-09T15:43:37;23.20;71.30
44182;DHT22;30436;48.888;9.202;2022-09-09T15:46:23;23.30;71.30
44182;DHT22;30436;48.888;9.202;2022-09-09T15:48:57;23.00;74.20
44182;DHT22;30436;48.888;9.202;2022-09-09T15:51:25;22.90;71.10
44182;DHT22;30436;48.888;9.202;2022-09-09T15:53:55;23.10;72.00
44182;DHT22;30436;48.888;9.202;2022-09-09T15:56:22;23.00;71.60
44182;DHT22;30436;48.888;9.202;2022-09-09T15:58:48;23.10;73.70
44182;DHT22;30436;48.888;9.202;2022-09-09T16:01:13;23.10;72.00
44182;DHT22;30436;48.888;9.202;2022-09-09T16:03:40;23.00;75.00
44182;DHT22;30436;48.888;9.202;2022-09-09T16:06:13;22.90;74.40
44182;DHT22;30436;48.888;9.202;2022-09-09T16:08:42;22.90;73.40
44182;DHT22;30436;48.888;9.202;2022-09-09T16:11:10;23.00;75.70
44182;DHT22;30436;48.888;9.202;2022-09-09T16:13:38;23.00;75.30
44182;DHT22;30436;48.888;9.202;2022-09-09T16:16:06;23.20;75.10
44182;DHT22;30436;48.888;9.202;2022-09-09T16:18:40;23.00;74.50
44182;DHT22;30436;48.888;9.202;2022-09-09T16:21:07;23.00;76.60
44182;DHT22;30436;48.888;9.202;2022-09-09T16:23:36;23.00;76.80
44182;DHT22;30436;48.888;9.202;2022-09-09T16:26:02;23.00;76.20
44182;DHT22;30436;48.888;9.202;2022-09-09T16:28:28;22.70;76.60
44182;DHT22;30436;48.888;9.202;2022-09-09T16:30:54;22.60;77.70
44182;DHT22;30436;48.888;9.202;2022-09-09T16:33:20;22.10;75.10
44182;DHT22;30436;48.888;9.202;2022-09-09T16:35:45;21.70;76.10
44182;DHT22;30436;48.888;9.202;2022-09-09T16:38:11;21.70;79.00
44182;DHT22;30436;48.888;9.202;2022-09-09T16:40:37;21.30;90.70
44182;DHT22;30436;48.888;9.202;2022-09-09T16:43:04;20.90;94.60
44182;DHT22;30436;48.888;9.202;2022-09-09T16:45:31;20.60;96.50
44182;DHT22;30436;48.888;9.202;2022-09-09T16:47:58;20.60;99.30
44182;DHT22;30436;48.888;9.202;2022-09-09T16:50:24;20.40;99.90
44182;DHT22;30436;48.888;9.202;2022-09-09T16:52:51;20.30;99.90
44182;DHT22;30436;48.888;9.202;2022-09-09T16:55:17;20.20;99.90
44182;DHT22;30436;48.888;9.202;2022-09-09T16:57:46;20.30;99.90
44182;DHT22;30436;48.888;9.202;2022-09-09T17:00:15;20.10;99.90
44182;DHT22;30436;48.888;9.202;2022-09-09T17:02:42;19.90;99.90
44182;DHT22;30436;48.888;9.202;2022-09-09T17:05:08;19.90;99.90
44182;DHT22;30436;48.888;9.202;2022-09-09T17:07:34;19.90;99.90
44182;DHT22;30436;48.888;9.202;2022-09-09T17:10:01;19.90;99.90
44182;DHT22;30436;48.888;9.202;2022-09-09T17:12:27;19.80;99.90
44182;DHT22;30436;48.888;9.202;2022-09-09T17:14:53;19.70;99.90
44182;DHT22;30436;48.888;9.202;2022-09-09T17:17:20;19.50;99.90
44182;DHT22;30436;48.888;9.202;2022-09-09T17:19:46;19.10;99.90
44182;DHT22;30436;48.888;9.202;2022-09-09T17:22:12;19.00;99.90
44182;DHT22;30436;48.888;9.202;2022-09-09T17:24:38;18.80;99.90
44182;DHT22;30436;48.888;9.202;2022-09-09T17:27:06;18.70;99.90
44182;DHT22;30436;48.888;9.202;2022-09-09T17:29:31;18.60;99.90
44182;DHT22;30436;48.888;9.202;2022-09-09T17:31:57;18.70;99.90
44182;DHT22;30436;48.888;9.202;2022-09-09T17:34:23;18.70;99.90
44182;DHT22;30436;48.888;9.202;2022-09-09T17:36:50;18.50;99.90
44182;DHT22;30436;48.888;9.202;2022-09-09T17:39:16;18.30;99.90
44182;DHT22;30436;48.888;9.202;2022-09-09T17:41:41;18.50;99.90
44182;DHT22;30436;48.888;9.202;2022-09-09T17:44:08;18.70;99.90
44182;DHT22;30436;48.888;9.202;2022-09-09T17:46:39;18.50;99.90
44182;DHT22;30436;48.888;9.202;2022-09-09T17:49:16;18.10;99.90
44182;DHT22;30436;48.888;9.202;2022-09-09T17:51:43;18.00;99.90
44182;DHT22;30436;48.888;9.202;2022-09-09T17:54:12;18.20;99.90